Time;durP1;ratioP1;P1;durP2;ratioP2;P2;SDS_P1;SDS_P2;PMS_P1;PMS_P2;Temp;Humidity;BMP_temperature;BMP_pressure;BME280_temperature;BME280_humidity;BME280_pressure;Samples;Min_cycle;Max_cycle;Signal;HPM_P1;HPM_P2
2021/09/21 00:02:17;;;;;;;2.55;0.93;;;;;;;4.56;100.00;102123.91;2571316;55;20121;-68
2021/09/21 00:04:44;;;;;;;2.35;1.20;;;;;;;4.52;100.00;102124.03;2570058;55;20126;-68
2021/09/21 00:07:11;;;;;;;4.35;1.20;;;;;;;4.49;100.00;102125.00;2566150;55;20495;-68
2021/09/21 00:09:38;;;;;;;3.35;1.62;;;;;;;4.51;100.00;102128.47;2572220;55;20111;-68
2021/09/21 00:12:06;;;;;;;1.90;1.20;;;;;;;4.51;100.00;102128.47;2571779;55;20116;-68
2021/09/21 00:14:33;;;;;;;2.00;0.90;;;;;;;4.51;100.00;102128.47;2569365;55;20179;-68
2021/09/21 00:17:02;;;;;;;3.80;1.17;;;;;;;4.48;100.00;102119.75;2571697;55;20144;-68
2021/09/21 00:19:32;;;;;;;1.55;1.10;;;;;;;4.42;100.00;102123.44;2571617;55;20125;-68
2021/09/21 00:21:59;;;;;;;1.52;0.98;;;;;;;4.48;100.00;102120.63;2571081;55;20145;-68
2021/09/21 00:24:26;;;;;;;3.28;1.27;;;;;;;4.47;100.00;102113.59;2570108;55;20125;-68
2021/09/21 00:26:54;;;;;;;1.87;1.23;;;;;;;4.46;100.00;102114.50;2571401;55;20112;-68
2021/09/21 00:29:21;;;;;;;2.72;1.30;;;;;;;4.48;100.00;102106.56;2569955;55;20608;-68
2021/09/21 00:31:56;;;;;;;3.47;1.20;;;;;;;4.49;100.00;102114.41;2571145;55;20116;-67
2021/09/21 00:34:27;;;;;;;4.70;1.17;;;;;;;4.46;100.00;102101.28;2570146;55;20109;-68
2021/09/21 00:36:54;;;;;;;4.12;1.30;;;;;;;4.38;100.00;102101.50;2569634;55;20102;-68
2021/09/21 00:39:21;;;;;;;2.37;1.00;;;;;;;4.41;100.00;102097.91;2569977;55;20168;-68
2021/09/21 00:41:49;;;;;;;3.92;1.60;;;;;;;4.40;100.00;102098.81;2571099;55;20120;-68
2021/09/21 00:44:20;;;;;;;1.73;1.12;;;;;;;4.45;100.00;102097.78;2571235;55;20175;-68
2021/09/21 00:46:47;;;;;;;5.18;1.58;;;;;;;4.42;100.00;102091.72;2570942;55;20105;-68
2021/09/21 00:49:15;;;;;;;2.60;1.25;;;;;;;4.37;100.00;102088.31;2569503;55;20122;-68
2021/09/21 00:51:43;;;;;;;1.85;1.15;;;;;;;4.37;100.00;102088.31;2570466;55;20114;-68
2021/09/21 00:54:10;;;;;;;2.85;1.08;;;;;;;4.36;100.00;102091.88;2565471;55;20132;-68
2021/09/21 00:56:38;;;;;;;2.00;1.10;;;;;;;4.31;100.00;102090.25;2570888;55;20113;-69
2021/09/21 00:59:06;;;;;;;3.05;1.30;;;;;;;4.32;100.00;102097.25;2569410;55;20119;-68
2021/09/21 01:01:33;;;;;;;2.95;1.15;;;;;;;4.30;100.00;102088.47;2571269;55;20110;-69
2021/09/21 01:04:01;;;;;;;2.95;1.20;;;;;;;4.27;100.00;102075.34;2570137;55;20110;-68
2021/09/21 01:06:28;;;;;;;4.68;1.65;;;;;;;4.27;100.00;102082.44;2569875;55;20106;-68
2021/09/21 01:08:55;;;;;;;3.10;1.40;;;;;;;4.23;100.00;102081.66;2571961;55;20117;-68
2021/09/21 01:11:23;;;;;;;5.60;1.62;;;;;;;4.23;100.00;102086.94;2567107;55;20110;-69
2021/09/21 01:13:50;;;;;;;3.17;1.20;;;;;;;4.30;100.00;102079.69;2571638;55;20120;-69
2021/09/21 01:16:20;;;;;;;3.17;1.30;;;;;;;4.25;100.00;102084.22;2571061;55;20135;-68
2021/09/21 01:18:48;;;;;;;7.43;1.30;;;;;;;4.19;100.00;102085.25;2570234;55;20121;-69
2021/09/21 01:21:16;;;;;;;2.92;1.98;;;;;;;4.17;100.00;102076.50;2572548;55;20154;-68
2021/09/21 01:23:47;;;;;;;3.33;1.92;;;;;;;4.13;100.00;102080.16;2571079;55;20117;-68
2021/09/21 01:26:17;;;;;;;5.32;2.17;;;;;;;4.08;100.00;102075.00;2572266;55;20118;-68
2021/09/21 01:28:46;;;;;;;2.58;1.67;;;;;;;4.10;100.00;102075.81;2569852;55;20124;-68
2021/09/21 01:31:13;;;;;;;4.12;2.08;;;;;;;4.16;100.00;102082.72;2570037;55;20700;-69
2021/09/21 01:33:44;;;;;;;3.33;2.97;;;;;;;4.11;100.00;102069.63;2570626;55;20655;-68
2021/09/21 01:36:13;;;;;;;7.45;5.65;;;;;;;4.12;100.00;102073.16;2572126;55;20538;-68
2021/09/21 01:38:40;;;;;;;8.23;6.47;;;;;;;4.08;100.00;102071.47;2571746;55;20658;-68
2021/09/21 01:41:08;;;;;;;9.57;6.12;;;;;;;4.10;100.00;102074.94;2570798;55;20604;-68
2021/09/21 01:43:35;;;;;;;3.12;2.30;;;;;;;4.07;100.00;102072.38;2572028;55;20130;-68
2021/09/21 01:46:03;;;;;;;4.10;2.40;;;;;;;4.04;100.00;102066.28;2570775;55;20121;-68
2021/09/21 01:48:30;;;;;;;3.83;2.90;;;;;;;4.04;100.00;102058.34;2571580;55;20118;-68
2021/09/21 01:50:59;;;;;;;4.40;3.83;;;;;;;4.03;100.00;102067.19;2569942;55;20140;-68
2021/09/21 01:53:38;;;;;;;4.70;3.33;;;;;;;4.06;100.00;102063.59;2571426;55;20684;-69
2021/09/21 01:58:51;;;;;;;4.57;2.83;;;;;;;4.06;100.00;102068.00;2569725;55;20121;-68
2021/09/21 02:01:21;;;;;;;3.30;2.70;;;;;;;4.03;100.00;102072.47;2572097;55;20648;-68
2021/09/21 02:03:50;;;;;;;3.50;2.62;;;;;;;4.08;100.00;102066.19;2571093;55;20114;-68
2021/09/21 02:06:17;;;;;;;3.40;1.67;;;;;;;3.93;100.00;102036.66;2572580;55;20627;-68
2021/09/21 02:08:45;;;;;;;6.28;2.03;;;;;;;4.01;100.00;102055.81;2571287;55;20742;-68
2021/09/21 02:11:12;;;;;;;5.68;2.05;;;;;;;4.03;100.00;102056.63;2572322;55;20105;-68
2021/09/21 02:13:39;;;;;;;3.50;1.70;;;;;;;4.03;100.00;102061.03;2571055;55;20125;-68
2021/09/21 02:16:08;;;;;;;3.55;2.17;;;;;;;4.03;100.00;102056.63;2570771;55;20121;-68
2021/09/21 02:18:35;;;;;;;3.28;1.87;;;;;;;4.01;100.00;102055.81;2570052;55;20110;-68
2021/09/21 02:21:02;;;;;;;3.97;1.80;;;;;;;4.01;100.00;102050.53;2572309;55;20122;-68
2021/09/21 02:23:29;;;;;;;3.67;2.10;;;;;;;3.99;100.00;102041.75;2570824;55;20109;-69
2021/09/21 02:25:57;;;;;;;3.58;1.70;;;;;;;4.00;100.00;102054.03;2572370;55;20617;-69
2021/09/21 02:28:24;;;;;;;2.83;1.80;;;;;;;3.99;100.00;102043.53;2564791;55;20124;-69
2021/09/21 02:30:51;;;;;;;3.00;1.80;;;;;;;3.98;100.00;102042.66;2570192;55;20612;-69
2021/09/21 02:33:19;;;;;;;1.60;1.02;;;;;;;4.07;100.00;102032.75;2570754;55;20117;-69
2021/09/21 02:35:46;;;;;;;4.15;1.90;;;;;;;3.98;100.00;102037.37;2571488;55;20168;-69
2021/09/21 02:38:13;;;;;;;3.42;1.95;;;;;;;3.91;100.00;102025.25;2571373;55;20669;-69
2021/09/21 02:40:40;;;;;;;3.75;2.30;;;;;;;3.95;100.00;102040.09;2570157;55;20163;-69
2021/09/21 02:43:08;;;;;;;4.47;2.10;;;;;;;3.92;100.00;102039.31;2572105;55;20121;-70
2021/09/21 02:45:35;;;;;;;4.78;1.80;;;;;;;3.94;100.00;102030.44;2570800;55;20128;-69
2021/09/21 02:48:02;;;;;;;3.67;1.85;;;;;;;3.91;100.00;102030.53;2572254;55;20106;-69
2021/09/21 02:50:31;;;;;;;3.47;1.60;;;;;;;3.92;100.00;102029.63;2569645;55;20135;-69
2021/09/21 02:52:58;;;;;;;2.95;1.73;;;;;;;3.88;100.00;102025.31;2572013;55;20109;-69
2021/09/21 02:55:25;;;;;;;2.75;1.70;;;;;;;3.85;100.00;102028.03;2571217;55;20746;-69
2021/09/21 02:57:52;;;;;;;4.57;1.60;;;;;;;3.86;100.00;102032.41;2570366;55;20121;-69
2021/09/21 03:00:23;;;;;;;3.90;1.87;;;;;;;3.83;100.00;102030.72;2571652;55;20110;-69
2021/09/21 03:02:50;;;;;;;4.15;2.00;;;;;;;3.86;100.00;102029.78;2571570;55;20123;-69
2021/09/21 03:05:21;;;;;;;3.78;2.17;;;;;;;3.83;100.00;102029.87;2571328;55;20665;-69
2021/09/21 03:07:53;;;;;;;3.58;2.35;;;;;;;3.75;100.00;102015.09;2571203;55;20762;-69
2021/09/21 03:10:34;;;;;;;4.85;2.30;;;;;;;3.73;100.00;102027.47;2571242;55;20619;-69
2021/09/21 03:18:39;;;;;;;2.45;1.50;;;;;;;3.68;100.00;102026.69;2570830;55;20115;-69
2021/09/21 03:21:06;;;;;;;3.40;1.60;;;;;;;3.64;100.00;102014.50;2571378;55;20129;-69
2021/09/21 03:23:34;;;;;;;4.45;1.98;;;;;;;3.65;100.00;102016.22;2571605;55;20133;-69
2021/09/21 03:26:01;;;;;;;4.68;1.85;;;;;;;3.63;100.00;102010.13;2570835;55;20132;-69
2021/09/21 03:28:29;;;;;;;4.97;1.45;;;;;;;3.63;100.00;102012.75;2570433;55;20122;-69
2021/09/21 03:30:56;;;;;;;2.70;1.67;;;;;;;3.66;100.00;102017.94;2570350;55;20513;-69
2021/09/21 03:33:23;;;;;;;3.97;2.22;;;;;;;3.68;100.00;102010.00;2570715;55;20117;-69
2021/09/21 03:35:50;;;;;;;3.05;1.73;;;;;;;3.59;100.00;102003.16;2572857;55;20157;-69
2021/09/21 03:38:17;;;;;;;2.15;1.40;;;;;;;3.57;100.00;102012.91;2571219;55;20117;-69
2021/09/21 03:40:45;;;;;;;2.47;1.77;;;;;;;3.61;100.00;102004.03;2570209;55;20128;-68
2021/09/21 03:43:13;;;;;;;3.40;1.70;;;;;;;3.58;100.00;102004.06;2571777;55;20733;-69
2021/09/21 03:45:41;;;;;;;2.58;1.33;;;;;;;3.58;100.00;102006.72;2570481;55;20118;-70
2021/09/21 03:48:08;;;;;;;2.87;1.80;;;;;;;3.59;100.00;102011.09;2566910;55;20114;-69
2021/09/21 03:50:36;;;;;;;2.78;1.65;;;;;;;3.54;100.00;101999.78;2564209;55;20118;-69
2021/09/21 03:53:04;;;;;;;2.60;1.52;;;;;;;3.51;100.00;102010.41;2571536;55;20124;-69
2021/09/21 03:55:31;;;;;;;3.05;1.40;;;;;;;3.53;100.00;102005.97;2571276;55;20117;-69
2021/09/21 03:57:59;;;;;;;3.30;1.77;;;;;;;3.48;100.00;102004.31;2570239;55;20125;-69
2021/09/21 04:00:27;;;;;;;2.55;1.70;;;;;;;3.48;100.00;102003.47;2567751;55;20527;-69
2021/09/21 04:02:54;;;;;;;2.22;1.50;;;;;;;3.50;100.00;102011.31;2567584;55;20235;-69
2021/09/21 04:05:22;;;;;;;4.60;1.83;;;;;;;3.50;100.00;102000.75;2567422;55;20520;-69
2021/09/21 04:07:49;;;;;;;3.60;1.80;;;;;;;3.53;100.00;102008.63;2567803;55;20118;-69
2021/09/21 04:10:17;;;;;;;4.18;1.60;;;;;;;3.48;100.00;102014.84;2567898;55;20148;-69
2021/09/21 04:12:44;;;;;;;7.10;2.28;;;;;;;3.46;100.00;102011.41;2567689;55;20113;-69
2021/09/21 04:15:13;;;;;;;2.10;1.40;;;;;;;3.47;100.00;102012.28;2562521;56;20132;-69
2021/09/21 04:17:40;;;;;;;4.53;1.62;;;;;;;3.43;100.00;102006.22;2567695;55;20128;-69
2021/09/21 04:20:09;;;;;;;2.78;1.62;;;;;;;3.46;100.00;102011.41;2567715;55;20164;-69
2021/09/21 04:22:39;;;;;;;6.15;1.87;;;;;;;3.48;100.00;102011.38;2567756;55;20114;-70
2021/09/21 04:25:07;;;;;;;3.55;2.05;;;;;;;3.48;100.00;102014.00;2567615;55;20114;-70
2021/09/21 04:27:35;;;;;;;2.62;1.50;;;;;;;3.50;100.00;102013.94;2567609;55;20124;-69
2021/09/21 04:30:04;;;;;;;2.15;1.50;;;;;;;3.53;100.00;102011.25;2567441;55;20122;-69
2021/09/21 04:32:32;;;;;;;2.72;1.48;;;;;;;3.55;100.00;102015.56;2567513;55;20118;-70
2021/09/21 04:35:00;;;;;;;2.37;1.60;;;;;;;3.56;100.00;102014.69;2567677;55;20124;-69
2021/09/21 04:37:27;;;;;;;2.45;1.70;;;;;;;3.58;100.00;102010.25;2567727;55;20136;-69
2021/09/21 04:39:55;;;;;;;2.62;1.67;;;;;;;3.61;100.00;102001.38;2567586;55;20160;-70
2021/09/21 04:42:24;;;;;;;4.12;2.40;;;;;;;3.58;100.00;101998.81;2567472;55;20101;-69
2021/09/21 04:44:51;;;;;;;3.87;1.73;;;;;;;3.58;100.00;101999.69;2567661;55;20540;-69
2021/09/21 04:47:19;;;;;;;6.87;1.52;;;;;;;3.64;100.00;102003.94;2567484;55;20116;-69
2021/09/21 04:49:46;;;;;;;2.72;1.62;;;;;;;3.66;100.00;102001.22;2567692;55;20117;-70
2021/09/21 04:52:14;;;;;;;2.12;1.50;;;;;;;3.65;100.00;102003.03;2567408;55;20654;-70
2021/09/21 04:54:42;;;;;;;3.47;1.58;;;;;;;3.65;100.00;101995.09;2562297;56;20128;-69
2021/09/21 04:57:10;;;;;;;2.37;1.50;;;;;;;3.67;100.00;102001.22;2567264;56;20102;-69
2021/09/21 04:59:37;;;;;;;3.35;1.73;;;;;;;3.73;100.00;102003.69;2567582;56;20106;-69
2021/09/21 05:02:04;;;;;;;2.47;1.60;;;;;;;3.78;100.00;102000.94;2567481;56;20114;-70
2021/09/21 05:04:31;;;;;;;3.47;1.73;;;;;;;3.80;100.00;101990.31;2569968;55;20113;-69
2021/09/21 05:06:59;;;;;;;3.58;2.33;;;;;;;3.86;100.00;102000.72;2572126;55;20535;-69
2021/09/21 05:09:26;;;;;;;6.75;2.03;;;;;;;3.91;100.00;102006.78;2572344;55;20137;-69
2021/09/21 05:11:53;;;;;;;3.12;1.60;;;;;;;3.91;100.00;101996.22;2571738;55;20130;-69
2021/09/21 05:14:21;;;;;;;4.18;1.77;;;;;;;4.06;100.00;101991.41;2572521;55;20233;-71
2021/09/21 05:16:48;;;;;;;3.92;2.00;;;;;;;4.08;100.00;101994.88;2572689;55;20126;-70
2021/09/21 05:19:15;;;;;;;3.62;1.70;;;;;;;3.84;100.00;101942.66;2572583;55;20114;-69
2021/09/21 05:21:42;;;;;;;2.95;2.00;;;;;;;4.19;100.00;101982.22;2567413;55;20523;-69
2021/09/21 05:24:10;;;;;;;3.08;1.45;;;;;;;4.19;100.00;101984.88;2572546;55;20503;-69
2021/09/21 05:26:37;;;;;;;4.00;1.83;;;;;;;4.26;100.00;101996.13;2572677;55;20129;-70
2021/09/21 05:29:05;;;;;;;6.03;1.80;;;;;;;4.22;100.00;101976.88;2572611;55;20503;-69
2021/09/21 05:31:32;;;;;;;4.75;2.05;;;;;;;4.21;100.00;101977.78;2572255;55;20131;-71
2021/09/21 05:34:00;;;;;;;2.90;1.62;;;;;;;4.25;100.00;101978.53;2572262;55;20118;-69
2021/09/21 05:36:27;;;;;;;4.97;1.87;;;;;;;4.28;100.00;101979.31;2572434;55;20140;-69
2021/09/21 05:38:54;;;;;;;4.43;1.80;;;;;;;4.26;100.00;101981.16;2572284;55;20119;-70
2021/09/21 05:41:22;;;;;;;3.22;1.87;;;;;;;4.29;100.00;101986.34;2572358;55;20128;-69
2021/09/21 05:43:49;;;;;;;1.30;1.10;;;;;;;4.39;100.00;101981.66;2571639;55;20623;-70
2021/09/21 05:46:16;;;;;;;3.20;1.60;;;;;;;4.36;100.00;101979.13;2566138;55;20132;-70
2021/09/21 05:48:43;;;;;;;3.60;1.33;;;;;;;4.38;100.00;101989.63;2571993;55;20126;-69
2021/09/21 05:51:10;;;;;;;5.47;2.55;;;;;;;4.23;100.00;101981.25;2570785;55;20104;-69
2021/09/21 05:53:38;;;;;;;4.93;1.98;;;;;;;4.20;100.00;101981.31;2573102;55;20139;-70
2021/09/21 05:56:05;;;;;;;5.57;2.12;;;;;;;4.20;100.00;101991.88;2573417;55;20109;-69
2021/09/21 05:58:33;;;;;;;3.62;1.80;;;;;;;4.13;100.00;101974.50;2573366;55;20655;-69
2021/09/21 06:01:01;;;;;;;4.50;1.98;;;;;;;4.17;100.00;101978.75;2573457;55;20113;-70
2021/09/21 06:03:28;;;;;;;5.15;2.75;;;;;;;4.13;100.00;101974.50;2572911;55;20626;-70
2021/09/21 06:05:55;;;;;;;5.60;2.78;;;;;;;4.15;100.00;101977.94;2572378;55;20118;-69
2021/09/21 06:08:22;;;;;;;4.45;2.40;;;;;;;4.19;100.00;101974.31;2571203;55;20164;-71
2021/09/21 06:10:50;;;;;;;6.75;2.45;;;;;;;4.15;100.00;101975.31;2572441;55;20129;-70
2021/09/21 06:13:17;;;;;;;3.67;2.03;;;;;;;4.19;100.00;101966.38;2573017;55;20422;-69
2021/09/21 06:15:46;;;;;;;4.07;2.10;;;;;;;4.26;100.00;101962.66;2567767;55;20658;-68
2021/09/21 06:18:14;;;;;;;4.45;2.87;;;;;;;4.39;100.00;101965.81;2570877;55;20132;-70
2021/09/21 06:20:42;;;;;;;3.97;1.90;;;;;;;4.53;100.00;101968.06;2573046;55;20102;-69
2021/09/21 06:23:09;;;;;;;5.82;2.47;;;;;;;4.69;100.00;101962.28;2573370;55;20120;-71
2021/09/21 06:25:38;;;;;;;4.18;2.22;;;;;;;4.98;100.00;101960.53;2573395;55;20112;-68
2021/09/21 06:28:06;;;;;;;3.67;2.33;;;;;;;5.22;100.00;101947.44;2573207;55;20114;-67
2021/09/21 06:30:33;;;;;;;3.87;1.87;;;;;;;5.40;98.35;101941.50;2572890;55;20117;-69
2021/09/21 06:33:01;;;;;;;2.97;1.95;;;;;;;5.57;98.75;101945.37;2572545;55;20121;-70
2021/09/21 06:35:28;;;;;;;3.80;1.80;;;;;;;5.80;98.25;101946.34;2571563;55;20121;-71
2021/09/21 06:37:55;;;;;;;5.20;1.67;;;;;;;6.01;96.71;101949.13;2571394;55;20131;-69
2021/09/21 06:40:23;;;;;;;2.40;1.77;;;;;;;6.18;94.00;101936.19;2571230;55;20129;-70
2021/09/21 06:42:50;;;;;;;1.87;1.40;;;;;;;6.37;93.32;101946.97;2570949;55;20122;-68
2021/09/21 06:45:17;;;;;;;1.85;1.52;;;;;;;6.59;92.74;101938.19;2571500;55;20719;-68
2021/09/21 06:47:44;;;;;;;2.85;1.55;;;;;;;6.87;90.68;101937.09;2571462;55;20133;-69
2021/09/21 06:50:14;;;;;;;5.20;1.80;;;;;;;6.96;89.51;101935.84;2572257;55;20169;-69
2021/09/21 06:52:41;;;;;;;2.35;1.73;;;;;;;6.87;88.29;101938.87;2572253;55;21069;-70
2021/09/21 06:55:10;;;;;;;3.58;2.00;;;;;;;6.81;88.80;101932.03;2572349;55;20125;-71
2021/09/21 06:57:38;;;;;;;5.85;2.30;;;;;;;6.82;89.48;101924.03;2572961;55;20690;-70
2021/09/21 07:00:09;;;;;;;3.87;2.45;;;;;;;7.10;93.53;101917.56;2573128;55;20228;-70
2021/09/21 07:02:37;;;;;;;4.55;1.77;;;;;;;7.16;89.87;101928.87;2568231;55;20647;-68
2021/09/21 07:05:08;;;;;;;2.87;1.50;;;;;;;7.09;87.66;101915.84;2573023;55;20129;-70
2021/09/21 07:07:36;;;;;;;2.50;1.65;;;;;;;7.04;88.31;101915.19;2573159;55;20139;-69
2021/09/21 07:10:03;;;;;;;2.53;1.77;;;;;;;7.00;88.93;101913.56;2573273;55;20132;-69
2021/09/21 07:12:30;;;;;;;3.37;2.10;;;;;;;6.95;88.65;101904.94;2568088;55;20110;-69
2021/09/21 07:14:57;;;;;;;7.50;3.05;;;;;;;7.03;89.65;101907.28;2573185;55;20136;-70
2021/09/21 07:17:25;;;;;;;2.47;1.45;;;;;;;7.17;87.29;101914.69;2573072;55;20101;-69
2021/09/21 07:19:52;;;;;;;3.95;1.70;;;;;;;7.06;87.17;101901.84;2573118;55;20531;-69
2021/09/21 07:22:19;;;;;;;3.20;2.20;;;;;;;7.10;89.32;101920.22;2573121;55;20539;-70
2021/09/21 07:24:47;;;;;;;4.10;2.47;;;;;;;7.13;89.35;101915.75;2573155;55;20140;-70
2021/09/21 07:27:14;;;;;;;3.58;2.08;;;;;;;7.13;89.51;101915.75;2573122;55;20098;-70
2021/09/21 07:29:41;;;;;;;6.75;2.60;;;;;;;7.20;89.25;101912.75;2573345;55;20181;-69
2021/09/21 07:32:08;;;;;;;5.25;1.95;;;;;;;7.28;87.78;101912.44;2573128;55;20124;-69
2021/09/21 07:34:35;;;;;;;2.22;1.58;;;;;;;7.39;86.08;101914.63;2572958;55;20128;-69
2021/09/21 07:37:03;;;;;;;3.58;2.08;;;;;;;7.48;87.79;101913.38;2573136;55;20105;-70
2021/09/21 07:39:30;;;;;;;3.50;1.80;;;;;;;7.29;85.80;101908.00;2573156;55;20604;-69
2021/09/21 07:41:58;;;;;;;3.15;2.20;;;;;;;6.93;89.82;101910.31;2573057;55;20136;-70
2021/09/21 07:44:25;;;;;;;4.97;1.90;;;;;;;6.76;88.98;101903.03;2573106;55;20616;-70
2021/09/21 07:46:53;;;;;;;3.65;1.92;;;;;;;6.68;91.17;101907.78;2573226;55;20105;-70
2021/09/21 07:49:20;;;;;;;7.10;2.45;;;;;;;6.69;89.51;101893.59;2573103;55;20114;-68
2021/09/21 07:51:48;;;;;;;3.45;2.15;;;;;;;6.59;89.32;101906.38;2573206;55;20130;-70
2021/09/21 07:54:16;;;;;;;3.62;2.22;;;;;;;6.48;91.63;101898.81;2572999;55;20121;-69
2021/09/21 07:56:43;;;;;;;5.07;2.22;;;;;;;6.44;91.48;101899.88;2573423;55;20611;-70
2021/09/21 07:59:11;;;;;;;7.12;2.25;;;;;;;6.42;92.02;101906.16;2568044;55;20157;-71
2021/09/21 08:01:40;;;;;;;5.93;2.33;;;;;;;6.37;92.91;101896.59;2572944;55;20114;-69
2021/09/21 08:04:08;;;;;;;4.53;2.33;;;;;;;6.43;92.51;101903.44;2573149;55;20121;-68
2021/09/21 08:06:35;;;;;;;4.50;2.97;;;;;;;6.50;95.16;101896.97;2573396;55;20113;-70
2021/09/21 08:09:02;;;;;;;2.85;1.85;;;;;;;6.65;93.98;101897.31;2573169;55;20158;-69
2021/09/21 08:11:29;;;;;;;4.28;2.37;;;;;;;6.81;91.71;101895.78;2572917;55;20129;-69
2021/09/21 08:13:56;;;;;;;3.05;1.35;;;;;;;6.92;90.26;101883.84;2572758;55;20110;-69
2021/09/21 08:16:24;;;;;;;7.28;2.15;;;;;;;6.91;90.03;101884.75;2572624;55;20508;-69
2021/09/21 08:18:51;;;;;;;6.43;2.75;;;;;;;7.01;91.41;101893.22;2573034;55;20109;-70
2021/09/21 08:21:18;;;;;;;3.97;2.67;;;;;;;7.08;91.67;101884.94;2572887;55;20124;-70
2021/09/21 08:23:45;;;;;;;28.00;10.25;;;;;;;7.18;89.94;101889.84;2572870;55;20106;-68
2021/09/21 08:26:12;;;;;;;98.68;39.08;;;;;;;7.10;88.90;101885.72;2573094;55;20519;-71
2021/09/21 08:28:39;;;;;;;49.72;20.37;;;;;;;7.01;88.12;101883.44;2567617;55;20098;-70
2021/09/21 08:31:07;;;;;;;23.35;10.13;;;;;;;7.00;88.34;101892.34;2572955;55;20128;-70
2021/09/21 08:33:35;;;;;;;8.88;4.05;;;;;;;7.03;89.07;101891.34;2572681;55;20114;-70
2021/09/21 08:36:03;;;;;;;3.78;2.37;;;;;;;7.15;89.09;101897.97;2572896;55;20516;-70
2021/09/21 08:38:30;;;;;;;3.12;2.00;;;;;;;7.19;88.29;101907.50;2572897;55;20106;-70
2021/09/21 08:40:58;;;;;;;8.52;3.97;;;;;;;7.07;90.05;101893.81;2567792;55;20110;-70
2021/09/21 08:43:25;;;;;;;4.25;2.50;;;;;;;7.08;89.03;101895.53;2572776;55;20114;-70
2021/09/21 08:45:53;;;;;;;4.18;2.30;;;;;;;7.09;91.73;101891.97;2572809;55;20113;-69
2021/09/21 08:48:21;;;;;;;7.20;3.97;;;;;;;7.26;87.94;101889.53;2572701;55;20113;-70
2021/09/21 08:50:49;;;;;;;4.68;2.15;;;;;;;7.43;88.68;101884.34;2572888;55;20125;-69
2021/09/21 08:53:16;;;;;;;6.22;1.90;;;;;;;7.76;89.55;101890.91;2572635;55;20117;-70
2021/09/21 08:55:43;;;;;;;5.90;2.08;;;;;;;8.00;87.86;101890.72;2572479;55;20101;-70
2021/09/21 08:58:10;;;;;;;3.00;2.20;;;;;;;8.12;84.07;101892.84;2572843;55;20110;-69
2021/09/21 09:00:37;;;;;;;4.05;2.47;;;;;;;7.90;85.95;101887.66;2572839;55;20106;-71
2021/09/21 09:03:07;;;;;;;6.60;4.30;;;;;;;7.76;84.53;101880.28;2572857;55;20539;-70
2021/09/21 09:05:45;;;;;;;7.05;3.40;;;;;;;7.61;84.11;101879.19;2572748;55;20614;-69
2021/09/21 09:08:14;;;;;;;8.55;4.07;;;;;;;7.36;86.42;101875.81;2572755;55;20639;-69
2021/09/21 09:10:41;;;;;;;7.55;4.68;;;;;;;7.35;84.78;101875.84;2572713;55;20503;-70
2021/09/21 09:13:18;;;;;;;4.03;2.60;;;;;;;7.38;86.46;101865.13;2572735;55;20524;-69
2021/09/21 09:15:54;;;;;;;7.80;3.40;;;;;;;7.29;87.46;101871.69;2572610;55;20119;-69
2021/09/21 09:18:27;;;;;;;14.85;5.80;;;;;;;7.33;87.10;101867.97;2572474;55;20124;-69
2021/09/21 09:20:58;;;;;;;22.37;10.30;;;;;;;7.41;86.80;101864.09;2573005;55;20132;-71
2021/09/21 09:23:26;;;;;;;19.25;11.70;;;;;;;7.47;88.37;101859.41;2572596;55;20120;-71
2021/09/21 09:25:53;;;;;;;11.38;6.32;;;;;;;7.65;87.41;101863.03;2572645;55;20122;-69
2021/09/21 09:28:23;;;;;;;6.80;3.70;;;;;;;7.59;84.21;101847.37;2573072;55;20113;-68
2021/09/21 09:30:52;;;;;;;5.93;3.12;;;;;;;7.83;86.63;101854.31;2573567;55;20123;-69
2021/09/21 09:33:20;;;;;;;8.25;5.62;;;;;;;8.17;89.45;101853.59;2573544;55;20106;-68
2021/09/21 09:35:49;;;;;;;3.40;2.40;;;;;;;8.45;83.45;101852.31;2573430;55;20113;-71
2021/09/21 09:38:19;;;;;;;5.22;2.40;;;;;;;8.60;81.80;101855.19;2573385;55;20114;-70
2021/09/21 09:40:49;;;;;;;5.22;2.10;;;;;;;8.72;78.45;101853.72;2573302;55;20113;-69
2021/09/21 09:43:18;;;;;;;9.13;4.82;;;;;;;8.72;81.47;101838.62;2573425;55;20651;-69
2021/09/21 09:45:48;;;;;;;7.07;3.20;;;;;;;9.19;80.08;101857.59;2573461;55;20120;-71
2021/09/21 09:48:18;;;;;;;5.97;3.47;;;;;;;9.44;77.69;101851.00;2573429;55;20098;-71
2021/09/21 09:50:49;;;;;;;5.10;2.72;;;;;;;9.27;74.19;101860.72;2573847;55;20121;-69
2021/09/21 09:53:18;;;;;;;4.12;2.97;;;;;;;9.00;77.12;101853.19;2573440;55;20642;-69
2021/09/21 09:55:48;;;;;;;15.90;8.18;;;;;;;8.89;78.77;101842.25;2573474;55;20127;-68
2021/09/21 09:58:16;;;;;;;8.20;5.07;;;;;;;8.60;76.53;101852.50;2573367;55;20117;-70
2021/09/21 10:00:43;;;;;;;8.50;4.82;;;;;;;8.42;78.95;101852.47;2573405;55;20128;-70
2021/09/21 10:03:12;;;;;;;5.05;2.83;;;;;;;8.42;78.35;101852.47;2573362;55;20114;-70
2021/09/21 10:05:41;;;;;;;4.97;3.20;;;;;;;8.29;81.85;101852.19;2573465;55;20133;-70
2021/09/21 10:08:10;;;;;;;10.90;6.68;;;;;;;8.31;80.99;101854.75;2573251;55;20121;-69
2021/09/21 10:10:40;;;;;;;15.32;7.55;;;;;;;8.21;79.01;101841.03;2573373;55;20106;-70
2021/09/21 10:13:10;;;;;;;9.95;5.43;;;;;;;8.19;80.85;101851.72;2573275;55;20137;-70
2021/09/21 10:15:39;;;;;;;6.90;4.28;;;;;;;8.20;80.82;101852.62;2573324;55;20110;-68
2021/09/21 10:18:15;;;;;;;8.18;4.47;;;;;;;8.36;81.28;101864.22;2573310;55;20570;-70
2021/09/21 10:20:45;;;;;;;4.12;3.05;;;;;;;8.32;78.93;101856.50;2573560;55;20114;-71
2021/09/21 10:23:12;;;;;;;8.23;4.75;;;;;;;8.47;81.11;101869.03;2573545;55;20651;-70
2021/09/21 10:25:42;;;;;;;7.90;5.20;;;;;;;8.58;84.79;101865.03;2573211;55;20489;-69
2021/09/21 10:28:14;;;;;;;8.77;5.25;;;;;;;8.84;80.77;101852.25;2573229;55;20115;-69
2021/09/21 10:30:53;;;;;;;5.28;2.85;;;;;;;8.97;80.09;101853.38;2573648;55;20124;-68
2021/09/21 10:33:22;;;;;;;5.72;3.25;;;;;;;9.03;82.62;101855.72;2573244;55;20226;-69
2021/09/21 10:35:50;;;;;;;5.32;2.97;;;;;;;9.04;78.97;101849.47;2573354;55;20131;-70
2021/09/21 10:38:19;;;;;;;4.53;3.33;;;;;;;8.99;76.58;101846.16;2568011;55;20136;-70
2021/09/21 10:40:49;;;;;;;5.87;4.10;;;;;;;8.88;77.69;101841.41;2573112;55;20129;-70
2021/09/21 10:43:35;;;;;;;5.80;3.50;;;;;;;8.82;80.19;101848.78;2568226;55;20188;-69
2021/09/21 10:46:08;;;;;;;8.60;3.40;;;;;;;8.69;80.12;101852.06;2573555;55;20117;-69
2021/09/21 10:48:37;;;;;;;8.60;3.90;;;;;;;8.45;81.17;101852.31;2573285;55;20113;-68
2021/09/21 10:51:06;;;;;;;7.32;3.40;;;;;;;8.44;80.69;101847.06;2573346;55;20128;-69
2021/09/21 10:53:34;;;;;;;6.43;2.58;;;;;;;8.36;82.45;101842.09;2573221;55;20132;-70
2021/09/21 10:56:04;;;;;;;3.50;2.95;;;;;;;8.32;81.36;101838.72;2573315;55;20102;-70
2021/09/21 10:58:31;;;;;;;5.87;3.78;;;;;;;8.34;83.15;101849.31;2573230;55;20115;-69
2021/09/21 11:01:00;;;;;;;4.85;3.40;;;;;;;8.28;82.65;101852.25;2573401;55;20109;-70
2021/09/21 11:03:30;;;;;;;4.78;3.05;;;;;;;8.17;82.38;101852.75;2573089;55;20121;-69
2021/09/21 11:05:58;;;;;;;6.93;3.25;;;;;;;8.13;82.17;101845.84;2573220;55;20570;-69
2021/09/21 11:08:29;;;;;;;6.55;2.90;;;;;;;8.07;81.54;101858.50;2572975;55;20124;-70
2021/09/21 11:11:00;;;;;;;;;;;;;;;8.26;81.55;101856.78;2573736;55;20529;-69
2021/09/21 11:13:32;;;;;;;4.00;2.55;;;;;;;8.08;80.59;101848.72;2573105;55;20000;-70
2021/09/21 11:16:03;;;;;;;14.23;7.07;;;;;;;8.08;81.79;101835.44;2573183;55;20179;-70
2021/09/21 11:18:31;;;;;;;6.78;4.20;;;;;;;8.07;81.53;101833.72;2573117;55;20118;-70
2021/09/21 11:21:00;;;;;;;4.85;2.92;;;;;;;8.17;83.13;101834.16;2573108;55;20124;-69
2021/09/21 11:23:29;;;;;;;6.32;3.22;;;;;;;8.21;81.80;101839.22;2573050;55;20511;-69
2021/09/21 11:25:58;;;;;;;9.18;4.00;;;;;;;8.19;81.48;101832.28;2572938;55;20133;-69
2021/09/21 11:28:26;;;;;;;6.37;3.97;;;;;;;8.26;81.44;101830.19;2573143;55;20709;-70
2021/09/21 11:30:55;;;;;;;6.00;3.00;;;;;;;8.28;80.40;101830.97;2573088;55;20663;-70
2021/09/21 11:33:25;;;;;;;3.90;2.03;;;;;;;8.28;81.16;101820.34;2573033;55;20136;-69
2021/09/21 11:35:55;;;;;;;5.68;4.65;;;;;;;8.40;81.04;101827.72;2573489;55;20106;-70
2021/09/21 11:38:24;;;;;;;3.15;2.22;;;;;;;8.44;81.15;101834.63;2573600;55;20106;-69
2021/09/21 11:40:52;;;;;;;4.20;2.40;;;;;;;8.42;82.10;101836.50;2573481;55;20540;-70
2021/09/21 11:43:20;;;;;;;2.30;1.50;;;;;;;8.37;83.44;101827.88;2573305;55;20380;-70